Terminal Aerodrome Forecast
Issued by NWS

Home | Current Version | Previous Version | Text Only | Print | Product List | Glossary On
Versions: 1 2 3 4 5 6 7 8 9 10 11 12 13 14 15 16
010
FTUS42 TJSJ 162321
TAFJBQ
TAF
TJBQ 162321Z 1700/1724 10012G18KT P6SM FEW025 SCT060
     FM170430 10005KT P6SM VCSH SCT025 SCT040
     FM171450 07017KT P6SM FEW025 SCT050
     FM172300 09012KT P6SM FEW022 SCT050=

USA.gov is the U.S. government's official web portal to all federal, state and local government web resources and services.